Decoded Metar for UWKE (BEGISHEVO in RUSSIA) (IATA:N/A) | Meteo·Mobile Aviation Weather
aviador You're here:

UWKE Decoded Metar

BEGISHEVO in RUSSIA
Report Time2019-10-21 06:30:00
UTC Time2019-10-21 07:11:34
Flight Rules lifr LIFR
Wind200° at 10 Gusting to 19 kt
W.Decomp.*RWY 21: 9.2 kt HW 3.9 kt LCW
Visibility7000 m
Phenomena:N/A
Clouds:Overcast 004 Hf
Expected CloudBase > 400 ft AGL from Temp-Dew spread
Ceiling400 ft
Temp06°C (ISA -8)
Dew Point05°C (93% RH)
AAT1.3°C
QNH1024 hPa
Density Alt-538 ft
Elevation643 ft
Report Wrong Elevation
Raw Report
UWKE 210630Z 20005G10MPS 7000 OVC004 06/05 Q1024 R21/210355 NOSIG
RMK OBST OBSC QFE750/1000=

Extra information for UWKE:More info

Metar Taf Metar & Taf Last 4 Metars F.Rules Stats Wind Profile Meteogram Temp Stats Airport Information Weather charts Add Link Nearby VenuesMetar ALERT Operation Metar Decoded Social comments